createdAt,value
2018-06-04T00:00:20.881Z,20.73
2018-06-04T00:02:49.092Z,20.78
2018-06-04T00:05:17.343Z,20.75
2018-06-04T00:07:45.707Z,20.80
2018-06-04T00:10:13.796Z,20.65
2018-06-04T00:12:42.164Z,20.51
2018-06-04T00:15:10.441Z,20.48
2018-06-04T00:17:38.894Z,20.41
2018-06-04T00:20:10.425Z,20.44
2018-06-04T00:22:38.858Z,20.66
2018-06-04T00:25:09.405Z,20.68
2018-06-04T00:27:38.289Z,20.60
2018-06-04T00:30:06.516Z,20.50
2018-06-04T00:32:34.881Z,20.48
2018-06-04T00:35:03.132Z,20.43
2018-06-04T00:37:32.030Z,20.38
2018-06-04T00:40:00.431Z,20.33
2018-06-04T00:42:28.955Z,20.30
2018-06-04T00:44:57.238Z,20.23
2018-06-04T00:47:25.550Z,20.13
2018-06-04T00:49:53.821Z,20.00
2018-06-04T00:52:23.121Z,19.93
2018-06-04T00:54:51.489Z,19.88
2018-06-04T00:57:19.755Z,19.93
2018-06-04T00:59:48.631Z,19.94
2018-06-04T01:02:17.142Z,19.85
2018-06-04T01:04:45.681Z,19.79
2018-06-04T01:07:14.642Z,19.73
2018-06-04T01:09:42.893Z,19.67
2018-06-04T01:12:11.447Z,19.69
2018-06-04T01:14:40.024Z,19.83
2018-06-04T01:17:08.521Z,19.83
2018-06-04T01:19:37.229Z,19.71
2018-06-04T01:22:05.491Z,19.79
2018-06-04T01:24:34.141Z,19.80
2018-06-04T01:27:02.637Z,19.82
2018-06-04T01:29:31.523Z,19.81
2018-06-04T01:31:59.825Z,19.75
2018-06-04T01:34:28.307Z,19.75
2018-06-04T01:36:57.253Z,19.64
2018-06-04T01:39:25.604Z,19.53
2018-06-04T01:41:54.263Z,19.52
2018-06-04T01:44:22.513Z,19.60
2018-06-04T01:46:51.027Z,19.59
2018-06-04T01:49:19.933Z,19.51
2018-06-04T01:51:48.300Z,19.39
2018-06-04T01:54:16.587Z,19.45
2018-06-04T01:56:45.246Z,19.47
2018-06-04T01:59:13.643Z,19.48
2018-06-04T02:01:42.253Z,19.44
2018-06-04T02:04:11.229Z,19.38
2018-06-04T02:06:54.219Z,19.40
2018-06-04T02:09:24.290Z,19.33
2018-06-04T02:11:52.487Z,19.28
2018-06-04T02:14:20.963Z,19.17
2018-06-04T02:16:49.965Z,19.11
2018-06-04T02:19:18.240Z,19.07
2018-06-04T02:21:46.573Z,19.02
2018-06-04T02:24:14.827Z,19.04
2018-06-04T02:26:43.332Z,19.01
2018-06-04T02:29:11.845Z,18.95
2018-06-04T02:31:40.197Z,19.00
2018-06-04T02:34:08.750Z,19.14
2018-06-04T02:36:37.030Z,19.13
2018-06-04T02:39:07.396Z,19.17
2018-06-04T02:41:35.982Z,19.10
2018-06-04T02:44:04.997Z,18.98
2018-06-04T02:46:33.932Z,19.05
2018-06-04T02:49:02.257Z,19.04
2018-06-04T02:51:30.488Z,19.06
2018-06-04T02:53:58.724Z,19.05
2018-06-04T02:56:26.948Z,19.03
2018-06-04T02:58:55.167Z,18.94
2018-06-04T03:01:23.726Z,18.79
2018-06-04T03:03:52.275Z,18.73
2018-06-04T03:06:20.443Z,18.70
2018-06-04T03:08:48.696Z,18.59
2018-06-04T03:11:16.962Z,18.61
2018-06-04T03:13:45.549Z,18.68
2018-06-04T03:16:13.803Z,18.67
2018-06-04T03:18:42.719Z,18.59
2018-06-04T03:21:11.307Z,18.57
2018-06-04T03:23:40.299Z,18.55
2018-06-04T03:26:08.897Z,18.48
2018-06-04T03:28:37.443Z,18.47
2018-06-04T03:31:05.674Z,18.50
2018-06-04T03:33:34.201Z,18.53
2018-06-04T03:36:02.514Z,18.59
2018-06-04T03:38:30.815Z,18.72
2018-06-04T03:40:59.292Z,18.75
2018-06-04T03:43:27.776Z,18.74
2018-06-04T03:45:56.146Z,18.79
2018-06-04T03:48:24.359Z,18.80
2018-06-04T03:50:52.638Z,18.84
2018-06-04T03:53:21.142Z,18.87
2018-06-04T03:55:49.641Z,18.85
2018-06-04T03:58:18.531Z,18.83
2018-06-04T04:00:46.878Z,18.89
2018-06-04T04:03:15.245Z,18.91
2018-06-04T04:05:44.428Z,18.98
2018-06-04T04:08:12.651Z,19.01
2018-06-04T04:10:41.146Z,19.13
2018-06-04T04:13:09.385Z,19.16
2018-06-04T04:15:37.625Z,19.25
2018-06-04T04:18:05.831Z,19.31
2018-06-04T04:20:34.621Z,19.39
2018-06-04T04:23:02.863Z,19.52
2018-06-04T04:25:31.197Z,19.75
2018-06-04T04:27:59.550Z,19.82
2018-06-04T04:30:27.647Z,19.92
2018-06-04T04:32:55.987Z,19.93
2018-06-04T04:35:24.224Z,19.82
2018-06-04T04:37:52.862Z,19.90
2018-06-04T04:40:21.802Z,19.94
2018-06-04T04:42:50.082Z,20.12
2018-06-04T04:45:18.434Z,20.16
2018-06-04T04:47:47.296Z,20.24
2018-06-04T04:50:15.788Z,20.32
2018-06-04T04:52:44.066Z,20.38
2018-06-04T04:55:12.326Z,20.44
2018-06-04T04:57:40.558Z,20.39
2018-06-04T05:00:08.872Z,20.43
2018-06-04T05:02:37.066Z,20.34
2018-06-04T05:05:05.441Z,20.50
2018-06-04T05:07:33.643Z,20.46
2018-06-04T05:10:02.643Z,20.40
2018-06-04T05:12:31.078Z,20.63
2018-06-04T05:14:59.469Z,20.68
2018-06-04T05:17:27.757Z,20.71
2018-06-04T05:19:56.286Z,20.90
2018-06-04T05:22:25.030Z,20.80
2018-06-04T05:24:54.267Z,20.85
2018-06-04T05:27:22.694Z,21.10
2018-06-04T05:29:51.259Z,21.05
2018-06-04T05:32:19.917Z,20.97
2018-06-04T05:34:48.332Z,20.94
2018-06-04T05:37:16.648Z,20.98
2018-06-04T05:39:45.681Z,21.10
2018-06-04T05:42:14.541Z,21.41
2018-06-04T05:44:43.094Z,21.34
2018-06-04T05:47:12.390Z,21.40
2018-06-04T05:49:40.999Z,21.71
2018-06-04T05:52:09.694Z,21.81
2018-06-04T05:54:38.518Z,21.77
2018-06-04T05:57:07.228Z,22.03
2018-06-04T05:59:35.481Z,22.05
2018-06-04T06:02:03.866Z,21.98
2018-06-04T06:04:32.870Z,22.30
2018-06-04T06:07:01.241Z,22.27
2018-06-04T06:09:29.469Z,22.34
2018-06-04T06:11:57.752Z,22.22
2018-06-04T06:14:26.084Z,22.57
2018-06-04T06:16:54.320Z,22.66
2018-06-04T06:19:22.521Z,22.32
2018-06-04T06:21:50.962Z,22.44
2018-06-04T06:24:19.278Z,22.80
2018-06-04T06:26:47.771Z,22.88
2018-06-04T06:29:16.497Z,22.52
2018-06-04T06:31:45.022Z,22.86
2018-06-04T06:34:13.613Z,22.96
2018-06-04T06:36:42.124Z,22.99
2018-06-04T06:39:10.504Z,23.36
2018-06-04T06:41:42.701Z,23.41
2018-06-04T06:44:11.162Z,23.55
2018-06-04T06:46:39.419Z,23.64
2018-06-04T06:49:07.971Z,23.54
2018-06-04T06:51:36.248Z,23.90
2018-06-04T06:54:04.693Z,23.94
2018-06-04T06:56:33.473Z,23.91
2018-06-04T06:59:02.617Z,23.96
2018-06-04T07:01:31.093Z,24.21
2018-06-04T07:03:59.480Z,24.20
2018-06-04T07:06:28.061Z,24.07
2018-06-04T07:08:56.317Z,23.67
2018-06-04T07:11:24.487Z,23.70
2018-06-04T07:13:52.805Z,23.99
2018-06-04T07:16:21.600Z,24.27
2018-06-04T07:18:50.132Z,24.19
2018-06-04T07:21:18.301Z,24.19
2018-06-04T07:23:46.490Z,24.54
2018-06-04T07:26:15.608Z,24.59
2018-06-04T07:28:43.842Z,24.84
2018-06-04T07:31:12.387Z,24.83
2018-06-04T07:33:40.630Z,25.04
2018-06-04T07:36:11.654Z,25.10
2018-06-04T07:38:40.786Z,25.07
2018-06-04T07:41:09.499Z,25.11
2018-06-04T07:43:37.662Z,25.32
2018-06-04T07:46:06.042Z,25.45
2018-06-04T07:48:34.443Z,25.52
2018-06-04T07:51:02.624Z,25.45
2018-06-04T07:53:30.891Z,25.45
2018-06-04T07:55:59.462Z,25.27
2018-06-04T07:58:27.842Z,25.46
2018-06-04T08:00:56.104Z,25.47
2018-06-04T08:03:24.375Z,25.97
2018-06-04T08:05:52.761Z,26.09
2018-06-04T08:08:21.304Z,25.96
2018-06-04T08:10:49.791Z,26.12
2018-06-04T08:13:18.027Z,26.11
2018-06-04T08:15:46.302Z,26.13
2018-06-04T08:18:14.828Z,26.14
2018-06-04T08:20:43.061Z,26.27
2018-06-04T08:23:11.658Z,26.34
2018-06-04T08:25:40.945Z,26.70
2018-06-04T08:28:09.812Z,26.63
2018-06-04T08:30:38.212Z,26.48
2018-06-04T08:33:07.538Z,26.22
2018-06-04T08:35:36.050Z,26.43
2018-06-04T08:38:05.256Z,26.67
2018-06-04T08:40:34.090Z,26.77
2018-06-04T08:43:04.643Z,26.88
2018-06-04T08:45:33.176Z,27.00
2018-06-04T08:48:04.007Z,27.37
2018-06-04T08:50:32.552Z,27.30
2018-06-04T08:53:01.658Z,27.20
2018-06-04T08:55:30.709Z,27.56
2018-06-04T08:57:59.328Z,27.98
2018-06-04T09:00:27.571Z,27.92
2018-06-04T09:02:56.082Z,28.05
2018-06-04T09:05:24.835Z,28.20
2018-06-04T09:07:53.133Z,28.36
2018-06-04T09:10:21.387Z,28.53
2018-06-04T09:12:50.075Z,28.81
2018-06-04T09:15:18.486Z,28.85
2018-06-04T09:17:47.125Z,28.93
2018-06-04T09:20:15.804Z,28.87
2018-06-04T09:22:44.037Z,29.03
2018-06-04T09:25:12.917Z,29.54
2018-06-04T09:27:41.398Z,30.05
2018-06-04T09:30:09.747Z,29.71
2018-06-04T09:32:38.010Z,29.56
2018-06-04T09:35:06.486Z,29.47
2018-06-04T09:37:34.974Z,29.87
2018-06-04T09:40:03.251Z,29.81
2018-06-04T09:42:31.683Z,29.68
2018-06-04T09:44:59.877Z,29.86
2018-06-04T09:47:28.108Z,29.47
2018-06-04T09:49:56.290Z,29.93
2018-06-04T09:52:24.814Z,29.91
2018-06-04T09:54:53.074Z,30.35
2018-06-04T09:57:21.393Z,30.32
2018-06-04T09:59:50.183Z,30.73
2018-06-04T10:02:18.697Z,31.07
2018-06-04T10:04:47.006Z,31.30
2018-06-04T10:07:15.460Z,31.83
2018-06-04T10:09:43.839Z,31.92
2018-06-04T10:12:12.254Z,31.45
2018-06-04T10:14:40.553Z,31.28
2018-06-04T10:17:09.108Z,31.40
2018-06-04T10:19:37.383Z,31.60
2018-06-04T10:22:06.150Z,31.40
2018-06-04T10:24:34.950Z,30.91
2018-06-04T10:27:06.075Z,30.67
2018-06-04T10:29:34.310Z,30.93
2018-06-04T10:32:03.171Z,30.80
2018-06-04T10:34:31.745Z,30.98
2018-06-04T10:37:00.019Z,31.39
2018-06-04T10:39:28.616Z,32.45
2018-06-04T10:41:57.528Z,32.67
2018-06-04T10:44:25.811Z,32.04
2018-06-04T10:46:54.323Z,31.25
2018-06-04T10:49:22.594Z,30.27
2018-06-04T10:51:50.896Z,30.05
2018-06-04T10:54:19.541Z,30.46
2018-06-04T10:56:47.904Z,30.82
2018-06-04T10:59:16.284Z,30.94
2018-06-04T11:01:44.827Z,30.95
2018-06-04T11:04:13.391Z,31.20
2018-06-04T11:06:41.652Z,31.33
2018-06-04T11:09:10.034Z,31.27
2018-06-04T11:11:38.612Z,31.38
2018-06-04T11:14:06.865Z,31.35
2018-06-04T11:16:35.383Z,31.51
2018-06-04T11:19:04.335Z,32.29
2018-06-04T11:21:32.894Z,32.79
2018-06-04T11:24:01.403Z,32.39
2018-06-04T11:26:29.959Z,31.84
2018-06-04T11:28:58.500Z,31.56
2018-06-04T11:31:26.767Z,31.60
2018-06-04T11:33:55.016Z,32.90
2018-06-04T11:36:23.870Z,33.11
2018-06-04T11:38:52.486Z,33.00
2018-06-04T11:41:20.807Z,33.69
2018-06-04T11:43:49.840Z,33.94
2018-06-04T11:46:18.380Z,34.26
2018-06-04T11:48:47.028Z,33.73
2018-06-04T11:51:15.488Z,33.09
2018-06-04T11:53:44.013Z,32.49
2018-06-04T11:56:12.605Z,32.41
2018-06-04T11:58:41.404Z,32.19
2018-06-04T12:01:09.825Z,32.58
2018-06-04T12:03:38.372Z,33.28
2018-06-04T12:06:06.678Z,33.00
2018-06-04T12:08:37.137Z,33.90
2018-06-04T12:11:05.352Z,34.38
2018-06-04T12:13:33.812Z,34.28
2018-06-04T12:16:02.095Z,34.80
2018-06-04T12:18:30.713Z,34.42
2018-06-04T12:20:58.947Z,34.81
2018-06-04T12:23:27.368Z,35.00
2018-06-04T12:25:55.709Z,35.00
2018-06-04T12:28:24.433Z,34.64
2018-06-04T12:30:52.730Z,34.63
2018-06-04T12:33:21.042Z,34.72
2018-06-04T12:35:49.297Z,34.46
2018-06-04T12:38:18.121Z,34.87
2018-06-04T12:40:46.362Z,35.20
2018-06-04T12:43:14.634Z,34.19
2018-06-04T12:45:42.909Z,34.39
2018-06-04T12:48:11.650Z,34.77
2018-06-04T12:50:40.154Z,35.13
2018-06-04T12:53:09.063Z,34.17
2018-06-04T12:55:37.348Z,34.05
2018-06-04T12:58:05.602Z,33.56
2018-06-04T13:00:34.116Z,33.09
2018-06-04T13:03:02.702Z,32.91
2018-06-04T13:05:31.260Z,32.98
2018-06-04T13:07:59.634Z,33.62
2018-06-04T13:10:28.121Z,34.70
2018-06-04T13:12:56.782Z,34.94
2018-06-04T13:15:25.069Z,35.62
2018-06-04T13:17:53.305Z,35.92
2018-06-04T13:20:21.673Z,36.09
2018-06-04T13:22:50.222Z,35.28
2018-06-04T13:25:18.485Z,34.64
2018-06-04T13:27:47.116Z,36.55
2018-06-04T13:30:15.416Z,38.19
2018-06-04T13:32:43.953Z,36.63
2018-06-04T13:35:12.342Z,35.35
2018-06-04T13:37:40.734Z,35.83
2018-06-04T13:40:09.514Z,35.59
2018-06-04T13:42:38.509Z,34.78
2018-06-04T13:45:06.996Z,33.94
2018-06-04T13:47:35.785Z,36.99
2018-06-04T13:50:04.382Z,37.86
2018-06-04T13:52:32.887Z,37.36
2018-06-04T13:55:01.447Z,39.31
2018-06-04T13:57:29.681Z,41.35
2018-06-04T13:59:58.624Z,43.12
2018-06-04T14:02:27.589Z,44.13
2018-06-04T14:04:55.943Z,44.87
2018-06-04T14:07:24.654Z,44.50
2018-06-04T14:09:52.882Z,43.91
2018-06-04T14:12:21.405Z,42.90
2018-06-04T14:14:50.208Z,43.64
2018-06-04T14:17:18.635Z,44.27
2018-06-04T14:19:46.975Z,44.00
2018-06-04T14:22:15.616Z,44.06
2018-06-04T14:24:44.860Z,44.58
2018-06-04T14:27:13.455Z,44.26
2018-06-04T14:29:42.349Z,42.43
2018-06-04T14:32:10.696Z,42.56
2018-06-04T14:34:38.915Z,43.81
2018-06-04T14:37:07.301Z,42.55
2018-06-04T14:39:35.602Z,41.65
2018-06-04T14:42:03.897Z,42.20
2018-06-04T14:44:32.379Z,42.17
2018-06-04T14:47:00.581Z,45.48
2018-06-04T14:49:28.865Z,44.54
2018-06-04T14:51:57.095Z,44.74
2018-06-04T14:54:25.840Z,43.07
2018-06-04T14:56:54.065Z,40.31
2018-06-04T14:59:22.454Z,38.25
2018-06-04T15:01:50.677Z,37.34
2018-06-04T15:04:19.216Z,37.97
2018-06-04T15:06:47.614Z,41.16
2018-06-04T15:09:15.905Z,43.06
2018-06-04T15:11:44.856Z,44.51
2018-06-04T15:14:13.413Z,45.41
2018-06-04T15:16:41.674Z,44.69
2018-06-04T15:19:09.954Z,43.72
2018-06-04T15:21:38.548Z,43.79
2018-06-04T15:24:07.063Z,42.71
2018-06-04T15:26:35.275Z,45.10
2018-06-04T15:29:03.516Z,43.75
2018-06-04T15:31:32.046Z,44.61
2018-06-04T15:34:00.683Z,43.97
2018-06-04T15:36:29.022Z,45.82
2018-06-04T15:38:57.420Z,42.15
2018-06-04T15:41:25.787Z,39.18
2018-06-04T15:43:54.272Z,37.06
2018-06-04T15:46:26.315Z,38.75
2018-06-04T15:48:54.870Z,41.49
2018-06-04T15:51:24.460Z,41.96
2018-06-04T15:53:53.417Z,42.52
2018-06-04T15:56:21.676Z,41.31
2018-06-04T15:58:49.865Z,42.67
2018-06-04T16:01:18.413Z,42.81
2018-06-04T16:03:47.347Z,42.05
2018-06-04T16:06:15.617Z,43.04
2018-06-04T16:08:44.140Z,43.45
2018-06-04T16:11:12.413Z,42.26
2018-06-04T16:13:40.781Z,40.91
2018-06-04T16:16:09.030Z,41.87
2018-06-04T16:18:37.515Z,41.91
2018-06-04T16:21:06.073Z,42.88
2018-06-04T16:23:34.988Z,43.13
2018-06-04T16:26:03.384Z,41.06
2018-06-04T16:28:31.909Z,42.00
2018-06-04T16:31:00.612Z,41.38
2018-06-04T16:33:29.258Z,40.31
2018-06-04T16:35:57.516Z,40.80
2018-06-04T16:38:26.232Z,41.25
2018-06-04T16:40:55.282Z,42.17
2018-06-04T16:43:23.799Z,42.52
2018-06-04T16:45:52.042Z,41.58
2018-06-04T16:48:20.520Z,42.13
2018-06-04T16:50:49.002Z,42.25
2018-06-04T16:53:17.487Z,41.84
2018-06-04T16:55:45.823Z,42.08
2018-06-04T16:58:14.440Z,41.88
2018-06-04T17:00:42.938Z,41.28
2018-06-04T17:03:11.228Z,39.07
2018-06-04T17:05:39.473Z,38.86
2018-06-04T17:08:07.825Z,37.90
2018-06-04T17:10:42.854Z,38.04
2018-06-04T17:13:11.196Z,39.38
2018-06-04T17:15:39.437Z,40.21
2018-06-04T17:18:07.779Z,40.72
2018-06-04T17:20:36.043Z,40.67
2018-06-04T17:23:04.409Z,40.60
2018-06-04T17:25:33.017Z,40.81
2018-06-04T17:28:01.827Z,40.27
2018-06-04T17:30:29.996Z,40.17
2018-06-04T17:32:58.147Z,39.73
2018-06-04T17:35:26.919Z,38.93
2018-06-04T17:37:55.394Z,38.87
2018-06-04T17:40:23.691Z,38.95
2018-06-04T17:42:52.197Z,39.12
2018-06-04T17:45:21.221Z,38.29
2018-06-04T17:47:49.975Z,36.87
2018-06-04T17:50:18.693Z,36.62
2018-06-04T17:52:53.852Z,35.68
2018-06-04T17:55:22.780Z,35.27
2018-06-04T17:57:51.400Z,35.11
2018-06-04T18:00:19.724Z,34.67
2018-06-04T18:02:48.087Z,33.40
2018-06-04T18:05:16.322Z,32.22
2018-06-04T18:07:44.908Z,31.77
2018-06-04T18:10:13.188Z,31.26
2018-06-04T18:12:41.386Z,31.28
2018-06-04T18:15:10.330Z,30.99
2018-06-04T18:17:38.613Z,30.79
2018-06-04T18:20:07.237Z,30.49
2018-06-04T18:22:35.850Z,30.11
2018-06-04T18:25:04.948Z,29.80
2018-06-04T18:27:33.257Z,29.80
2018-06-04T18:30:01.779Z,29.64
2018-06-04T18:32:30.089Z,29.59
2018-06-04T18:34:58.334Z,29.77
2018-06-04T18:37:28.541Z,29.50
2018-06-04T18:39:57.672Z,29.32
2018-06-04T18:42:27.318Z,29.08
2018-06-04T18:44:56.413Z,28.94
2018-06-04T18:47:25.631Z,28.90
2018-06-04T18:49:54.614Z,28.74
2018-06-04T18:52:23.875Z,28.52
2018-06-04T18:54:53.343Z,28.49
2018-06-04T18:57:22.546Z,28.33
2018-06-04T18:59:51.494Z,28.17
2018-06-04T19:02:21.084Z,28.05
2018-06-04T19:04:50.995Z,27.81
2018-06-04T19:07:20.109Z,27.63
2018-06-04T19:09:49.577Z,27.70
2018-06-04T19:12:18.755Z,27.56
2018-06-04T19:14:49.280Z,27.59
2018-06-04T19:17:18.702Z,27.37
2018-06-04T19:19:48.121Z,27.13
2018-06-04T19:22:17.380Z,27.21
2018-06-04T19:24:46.818Z,27.13
2018-06-04T19:27:16.919Z,26.91
2018-06-04T19:29:46.543Z,26.94
2018-06-04T19:32:16.136Z,26.83
2018-06-04T19:34:45.706Z,26.77
2018-06-04T19:37:15.023Z,26.59
2018-06-04T19:39:44.293Z,26.54
2018-06-04T19:42:13.082Z,26.55
2018-06-04T19:44:42.138Z,26.57
2018-06-04T19:47:11.227Z,26.38
2018-06-04T19:49:40.333Z,26.38
2018-06-04T19:52:09.538Z,26.46
2018-06-04T19:54:38.764Z,26.48
2018-06-04T19:57:07.117Z,26.34
2018-06-04T19:59:36.197Z,26.42
2018-06-04T20:02:05.316Z,26.44
2018-06-04T20:04:33.856Z,26.22
2018-06-04T20:07:02.623Z,26.28
2018-06-04T20:09:31.179Z,26.17
2018-06-04T20:11:59.705Z,26.23
2018-06-04T20:14:28.384Z,26.31
2018-06-04T20:16:56.911Z,26.23
2018-06-04T20:19:25.467Z,26.22
2018-06-04T20:21:53.904Z,26.17
2018-06-04T20:24:22.196Z,26.04
2018-06-04T20:26:51.817Z,25.81
2018-06-04T20:29:20.567Z,25.80
2018-06-04T20:31:50.091Z,25.75
2018-06-04T20:34:18.423Z,25.52
2018-06-04T20:36:47.168Z,25.54
2018-06-04T20:39:16.133Z,25.69
2018-06-04T20:41:45.217Z,25.65
2018-06-04T20:44:13.572Z,25.52
2018-06-04T20:46:41.850Z,25.50
2018-06-04T20:49:10.156Z,25.60
2018-06-04T20:51:38.561Z,25.56
2018-06-04T20:54:07.521Z,25.55
2018-06-04T20:56:37.771Z,25.51
2018-06-04T20:59:06.916Z,25.38
2018-06-04T21:01:35.420Z,25.16
2018-06-04T21:04:04.025Z,25.18
2018-06-04T21:06:32.621Z,25.07
2018-06-04T21:09:00.997Z,25.08
2018-06-04T21:11:29.375Z,25.06
2018-06-04T21:13:57.767Z,24.99
2018-06-04T21:16:26.216Z,25.03
2018-06-04T21:18:54.722Z,24.90
2018-06-04T21:21:23.106Z,24.97
2018-06-04T21:23:51.433Z,25.02
2018-06-04T21:26:20.173Z,24.92
2018-06-04T21:28:48.746Z,24.86
2018-06-04T21:31:17.055Z,24.86
2018-06-04T21:33:45.407Z,24.83
2018-06-04T21:36:13.832Z,24.64
2018-06-04T21:38:42.298Z,24.49
2018-06-04T21:41:10.932Z,24.47
2018-06-04T21:43:39.417Z,24.37
2018-06-04T21:46:08.153Z,24.46
2018-06-04T21:48:36.666Z,24.49
2018-06-04T21:51:05.528Z,24.44
2018-06-04T21:53:33.861Z,24.45
2018-06-04T21:56:03.647Z,24.43
2018-06-04T21:58:32.494Z,24.43
2018-06-04T22:01:01.359Z,24.36
2018-06-04T22:03:30.978Z,24.46
2018-06-04T22:05:59.490Z,24.28
2018-06-04T22:08:27.815Z,24.25
2018-06-04T22:10:57.077Z,24.25
2018-06-04T22:13:25.386Z,24.16
2018-06-04T22:15:53.727Z,24.13
2018-06-04T22:18:24.653Z,24.15
2018-06-04T22:20:52.948Z,24.12
2018-06-04T22:23:22.586Z,24.08
2018-06-04T22:25:50.845Z,24.15
2018-06-04T22:28:19.438Z,23.99
2018-06-04T22:30:47.672Z,23.94
2018-06-04T22:33:16.848Z,23.83
2018-06-04T22:35:46.765Z,23.80
2018-06-04T22:38:15.686Z,23.83
2018-06-04T22:40:43.968Z,23.66
2018-06-04T22:43:12.530Z,23.63
2018-06-04T22:45:42.176Z,23.52
2018-06-04T22:48:10.565Z,23.30
2018-06-04T22:50:40.332Z,23.23
2018-06-04T22:53:09.130Z,23.29
2018-06-04T22:55:37.887Z,23.33
2018-06-04T22:58:06.745Z,23.31
2018-06-04T23:00:35.636Z,23.21
2018-06-04T23:03:04.663Z,23.28
2018-06-04T23:05:33.299Z,23.35
2018-06-04T23:08:01.984Z,23.28
2018-06-04T23:10:30.745Z,23.31
2018-06-04T23:12:59.023Z,23.29
2018-06-04T23:15:27.775Z,23.28
2018-06-04T23:17:56.376Z,23.27
2018-06-04T23:20:24.740Z,23.27
2018-06-04T23:22:53.520Z,23.22
2018-06-04T23:25:22.380Z,23.16
2018-06-04T23:27:51.066Z,23.12
2018-06-04T23:30:20.802Z,23.03
2018-06-04T23:32:49.359Z,22.93
2018-06-04T23:35:18.304Z,22.86
2018-06-04T23:37:47.237Z,22.80
2018-06-04T23:40:15.583Z,22.71
2018-06-04T23:42:43.901Z,22.81
2018-06-04T23:45:12.675Z,22.84
2018-06-04T23:47:40.993Z,22.79
2018-06-04T23:50:09.842Z,22.71
2018-06-04T23:52:38.149Z,22.66
2018-06-04T23:55:06.541Z,22.54
2018-06-04T23:57:36.224Z,22.40
